Coastal Inspiration — CFN4970 — position and weather

sailwx.info

Track history (hours):
 
Tides and Currents Weather Stations Pressure Air Temp Water Temp Dewpoint Dewpoint Depression Visibility Wind Speed Wind Dir Waves Ship Positions

Coastal Inspiration

Last reported at 2014-Dec-22 00:33 UTC. Time now 2014-Dec-22 00:35 UTC.
Position N 49°04' W 123°25'.

Length 160 m; draft 6 m.

Type: Passenger vessel. MMSI: 316011408.

Date/timePositionNaut miles runAvg speedWind from/ knotsBaromVisibWave heightAir tempDewpointWater temp
2014-Dec-22 00:33N 49°04' W 123°25'1817.8
2014-Dec-21 23:33N 49°13' W 123°49'2 2.4
2014-Dec-21 22:33N 49°12' W 123°52'1818.2
2014-Dec-21 21:34N 49°07' W 123°26'1413.4
2014-Dec-21 20:32N 49°00' W 123°08'1212.1
2014-Dec-21 19:33N 49°04' W 123°25'1918.5
2014-Dec-21 18:33N 49°13' W 123°50'3 0.2
2014-Dec-21 01:10N 49°10' W 123°53'914.5
2014-Dec-21 00:32N 49°10' W 123°39'1818.5
2014-Dec-20 23:33N 49°02' W 123°15'2 2.3
2014-Dec-20 22:34N 48°60' W 123°13'1818.0
2014-Dec-20 21:32N 49°09' W 123°37'11 8.3
2014-Dec-20 20:14N 49°10' W 123°53'1014.4
2014-Dec-20 19:33N 49°11' W 123°38'1818.5
2014-Dec-20 18:33N 49°01' W 123°15'1 1.1
2014-Dec-20 17:33N 48°60' W 123°14'1818.4
2014-Dec-20 16:33N 49°10' W 123°38'10 1.3
2014-Dec-20 08:32N 49°10' W 123°53'1616.7
2014-Dec-20 07:33N 49°07' W 123°29'1515.4
2014-Dec-20 06:34N 49°00' W 123°08'10 9.8
2014-Dec-20 05:33N 49°03' W 123°22'1919.3
2014-Dec-20 04:33N 49°13' W 123°48'4 3.5
2014-Dec-20 03:33N 49°12' W 123°53'1918.9
2014-Dec-20 02:33N 49°06' W 123°26'1312.9
2014-Dec-20 01:33N 49°00' W 123°08'1313.2
2014-Dec-20 00:33N 49°05' W 123°27'1717.4
2014-Dec-19 23:34N 49°13' W 123°51'1 0.6
2014-Dec-19 22:33N 49°13' W 123°52'1918.7
2014-Dec-19 21:34N 49°06' W 123°25'1312.3
2014-Dec-19 20:33N 49°00' W 123°08'1212.1
2014-Dec-19 19:34N 49°04' W 123°25'1918.3
2014-Dec-19 18:33N 49°13' W 123°50'1 1.1
2014-Dec-19 17:33N 49°13' W 123°51'1818.1
2014-Dec-19 16:33N 49°06' W 123°26'1312.7
2014-Dec-19 15:32N 49°00' W 123°08'1313.2
2014-Dec-19 14:33N 49°04' W 123°27'1717.3
2014-Dec-19 13:33N 49°13' W 123°49'3 0.6
2014-Dec-19 08:31N 49°11' W 123°53'1818.5
2014-Dec-19 07:34N 49°07' W 123°27'1414.1
2014-Dec-19 06:33N 49°00' W 123°08'1414.0
2014-Dec-19 05:33N 49°05' W 123°28'1817.6
2014-Dec-19 04:33N 49°12' W 123°53'3 3.2
2014-Dec-19 03:33N 49°13' W 123°49'2020.2
2014-Dec-19 02:34N 49°03' W 123°22'10 9.5
2014-Dec-19 01:33N 49°00' W 123°08'1313.4
2014-Dec-19 00:33N 49°05' W 123°27'1817.2
2014-Dec-18 23:31N 49°12' W 123°52'1 0.8
2014-Dec-18 22:33N 49°13' W 123°51'1918.8
2014-Dec-18 21:34N 49°05' W 123°25'1211.9
2014-Dec-18 20:32N 49°00' W 123°08'1313.1
2014-Dec-18 19:34N 49°04' W 123°27'1717.3
2014-Dec-18 18:34N 49°13' W 123°50'0 0.3
2014-Dec-18 17:31N 49°13' W 123°50'1717.5
2014-Dec-18 16:33N 49°06' W 123°26'1312.1
2014-Dec-18 15:27N 49°00' W 123°08'1214.0
2014-Dec-18 14:34N 49°04' W 123°26'1717.5
2014-Dec-18 13:33N 49°13' W 123°49'4 0.8
2014-Dec-18 08:32N 49°10' W 123°53'1717.2
2014-Dec-18 07:33N 49°07' W 123°28'1514.9
2014-Dec-18 06:33N 49°00' W 123°08'1111.4
2014-Dec-18 05:34N 49°04' W 123°24'1919.0
2014-Dec-18 04:33N 49°13' W 123°50'1 1.2
2014-Dec-18 03:33N 49°12' W 123°52'1717.3
2014-Dec-18 02:33N 49°06' W 123°28'1414.2
2014-Dec-18 01:34N 49°00' W 123°08'1211.5
2014-Dec-18 00:34N 49°04' W 123°25'1817.9
2014-Dec-17 23:33N 49°13' W 123°48'3 2.7
2014-Dec-17 22:33N 49°12' W 123°52'1817.6
2014-Dec-17 21:33N 49°07' W 123°27'1413.9
2014-Dec-17 20:33N 49°00' W 123°08'1212.1
2014-Dec-17 19:34N 49°04' W 123°26'1818.0
2014-Dec-17 18:34N 49°13' W 123°49'1 1.2
2014-Dec-17 17:34N 49°13' W 123°51'1817.8
2014-Dec-17 16:33N 49°06' W 123°26'1313.0
2014-Dec-17 15:34N 49°00' W 123°08'1312.6
2014-Dec-17 14:33N 49°04' W 123°26'1817.7
2014-Dec-17 13:33N 49°13' W 123°49'4 0.8
2014-Dec-17 08:33N 49°10' W 123°53'1717.3
2014-Dec-17 07:33N 49°07' W 123°28'1414.5
2014-Dec-17 06:33N 49°00' W 123°08'1313.3
2014-Dec-17 05:34N 49°05' W 123°27'1818.1
2014-Dec-17 04:33N 49°12' W 123°52'1 1.3
2014-Dec-17 03:33N 49°13' W 123°51'1818.6
2014-Dec-17 02:33N 49°06' W 123°25'1212.2
2014-Dec-17 01:33N 49°00' W 123°08'1312.9
2014-Dec-17 00:33N 49°05' W 123°26'1817.9
2014-Dec-16 23:33N 49°13' W 123°51'2 1.9
2014-Dec-16 22:33N 49°12' W 123°53'1818.1
2014-Dec-16 21:33N 49°06' W 123°27'1413.7
2014-Dec-16 20:33N 49°00' W 123°08'1212.3
2014-Dec-16 19:33N 49°04' W 123°26'1818.4
2014-Dec-16 18:33N 49°13' W 123°50'2 2.0
2014-Dec-16 17:34N 49°12' W 123°53'1818.1
2014-Dec-16 16:34N 49°06' W 123°27'1413.7
2014-Dec-16 15:33N 49°00' W 123°08'1211.9
2014-Dec-16 14:33N 49°04' W 123°25'1918.7
2014-Dec-16 13:33N 49°13' W 123°50'4 0.7
2014-Dec-16 08:33N 49°10' W 123°53'1616.3
2014-Dec-16 07:33N 49°07' W 123°29'1515.4
2014-Dec-16 06:33N 49°00' W 123°08'1212.0
2014-Dec-16 05:33N 49°04' W 123°25'1818.1
2014-Dec-16 04:33N 49°13' W 123°50'3 2.5
2014-Dec-16 03:32N 49°12' W 123°53'1818.9
2014-Dec-16 02:33N 49°06' W 123°27'1413.5
2014-Dec-16 01:33N 49°00' W 123°08'1312.4
2014-Dec-16 00:31N 49°04' W 123°27'1718.1
2014-Dec-15 23:33N 49°13' W 123°50'2 2.5
2014-Dec-15 22:34N 49°12' W 123°53'1817.8
2014-Dec-15 21:33N 49°06' W 123°27'1414.1
2014-Dec-15 20:33N 49°00' W 123°08'1111.1
2014-Dec-15 19:34N 49°03' W 123°24'1918.8
2014-Dec-15 18:34N 49°13' W 123°49'3 3.1
2014-Dec-15 17:34N 49°12' W 123°53'1817.9
2014-Dec-15 16:34N 49°07' W 123°27'1414.0
2014-Dec-15 15:33N 49°00' W 123°08'1211.9
2014-Dec-15 14:33N 49°04' W 123°25'1918.5
2014-Dec-15 13:33N 49°13' W 123°50'3 0.6
2014-Dec-15 08:33N 49°10' W 123°53'1717.1
2014-Dec-15 07:33N 49°08' W 123°27'1514.9
2014-Dec-15 06:34N 49°00' W 123°08'1211.9
2014-Dec-15 05:33N 49°04' W 123°25'1818.2
2014-Dec-15 04:33N 49°13' W 123°49'1 1.0
2014-Dec-15 03:33N 49°13' W 123°51'1919.3
2014-Dec-15 02:33N 49°06' W 123°23'1211.7
2014-Dec-15 01:33N 49°00' W 123°08'1312.7
2014-Dec-15 00:33N 49°04' W 123°26'1818.0
2014-Dec-14 23:33N 49°13' W 123°51'2 2.0
2014-Dec-14 22:33N 49°12' W 123°53'1817.7
2014-Dec-14 21:33N 49°07' W 123°27'1414.2
2014-Dec-14 20:33N 49°00' W 123°08'1111.1
2014-Dec-14 19:34N 49°03' W 123°24'1918.8
2014-Dec-14 18:34N 49°13' W 123°49'4 0.3
2014-Dec-14 01:11N 49°10' W 123°53'1013.9
2014-Dec-14 00:29N 49°11' W 123°39'1819.4
2014-Dec-13 23:33N 49°01' W 123°16'3 3.1
2014-Dec-13 22:33N 49°00' W 123°11'1818.5
2014-Dec-13 21:33N 49°09' W 123°36'11 8.1
2014-Dec-13 20:09N 49°10' W 123°53'914.7
2014-Dec-13 19:33N 49°11' W 123°40'1918.9
2014-Dec-13 18:33N 49°01' W 123°15'3 2.6
2014-Dec-13 17:33N 49°00' W 123°12'1918.5
2014-Dec-13 16:33N 49°09' W 123°37'11 1.4
2014-Dec-13 08:33N 49°11' W 123°53'1717.0
2014-Dec-13 07:33N 49°07' W 123°28'1514.8
2014-Dec-13 06:33N 49°00' W 123°08'1211.6
2014-Dec-13 05:34N 49°03' W 123°25'1918.7
2014-Dec-13 04:33N 49°13' W 123°49'2 2.2
2014-Dec-13 03:33N 49°12' W 123°53'1818.2
2014-Dec-13 02:33N 49°06' W 123°26'1313.4
2014-Dec-13 01:33N 49°00' W 123°08'1212.1
2014-Dec-13 00:33N 49°04' W 123°26'1918.6
2014-Dec-12 23:33N 49°13' W 123°50'2 2.2
2014-Dec-12 22:34N 49°12' W 123°53'1817.7
2014-Dec-12 21:33N 49°07' W 123°27'1414.0
2014-Dec-12 20:33N 49°00' W 123°08'1111.2
2014-Dec-12 19:33N 49°04' W 123°24'1918.7
2014-Dec-12 18:33N 49°13' W 123°49'3 2.5
2014-Dec-12 17:34N 49°12' W 123°53'1817.9
2014-Dec-12 16:33N 49°07' W 123°27'1413.9
2014-Dec-12 15:33N 49°00' W 123°08'1211.5
2014-Dec-12 14:33N 49°04' W 123°25'1818.3
2014-Dec-12 13:33N 49°13' W 123°49'1 0.2
2014-Dec-12 08:33N 49°13' W 123°47'2020.1
2014-Dec-12 07:33N 49°03' W 123°21'9 8.6
2014-Dec-12 06:33N 49°00' W 123°08'1110.7
2014-Dec-12 05:33N 49°03' W 123°23'1919.2
2014-Dec-12 04:34N 49°13' W 123°49'2 2.2
2014-Dec-12 03:33N 49°12' W 123°52'2020.1
2014-Dec-12 02:33N 49°05' W 123°23'1111.0
2014-Dec-12 01:33N 49°00' W 123°08'1212.5
2014-Dec-12 00:33N 49°04' W 123°26'  
Track history (hours):
 
Tides and Currents Weather Stations Pressure Air Temp Water Temp Dewpoint Dewpoint Depression Visibility Wind Speed Wind Dir Waves Ship Positions

Coastal Inspiration

Last reported at 2014-Dec-22 00:33 UTC. Time now 2014-Dec-22 00:35 UTC.
Position N 49°04' W 123°25'.

Length 160 m; draft 6 m.

Type: Passenger vessel. MMSI: 316011408.

Date/timePositionNaut miles runAvg speedWind from/ knotsBaromVisibWave heightAir tempDewpointWater temp
2014-Dec-22 00:33N 49°04' W 123°25'1817.8
2014-Dec-21 23:33N 49°13' W 123°49'2 2.4
2014-Dec-21 22:33N 49°12' W 123°52'1818.2
2014-Dec-21 21:34N 49°07' W 123°26'1413.4
2014-Dec-21 20:32N 49°00' W 123°08'1212.1
2014-Dec-21 19:33N 49°04' W 123°25'1918.5
2014-Dec-21 18:33N 49°13' W 123°50'3 0.2
2014-Dec-21 01:10N 49°10' W 123°53'914.5
2014-Dec-21 00:32N 49°10' W 123°39'1818.5
2014-Dec-20 23:33N 49°02' W 123°15'2 2.3
2014-Dec-20 22:34N 48°60' W 123°13'1818.0
2014-Dec-20 21:32N 49°09' W 123°37'11 8.3
2014-Dec-20 20:14N 49°10' W 123°53'1014.4
2014-Dec-20 19:33N 49°11' W 123°38'1818.5
2014-Dec-20 18:33N 49°01' W 123°15'1 1.1
2014-Dec-20 17:33N 48°60' W 123°14'1818.4
2014-Dec-20 16:33N 49°10' W 123°38'10 1.3
2014-Dec-20 08:32N 49°10' W 123°53'1616.7
2014-Dec-20 07:33N 49°07' W 123°29'1515.4
2014-Dec-20 06:34N 49°00' W 123°08'10 9.8
2014-Dec-20 05:33N 49°03' W 123°22'1919.3
2014-Dec-20 04:33N 49°13' W 123°48'4 3.5
2014-Dec-20 03:33N 49°12' W 123°53'1918.9
2014-Dec-20 02:33N 49°06' W 123°26'1312.9
2014-Dec-20 01:33N 49°00' W 123°08'1313.2
2014-Dec-20 00:33N 49°05' W 123°27'1717.4
2014-Dec-19 23:34N 49°13' W 123°51'1 0.6
2014-Dec-19 22:33N 49°13' W 123°52'1918.7
2014-Dec-19 21:34N 49°06' W 123°25'1312.3
2014-Dec-19 20:33N 49°00' W 123°08'1212.1
2014-Dec-19 19:34N 49°04' W 123°25'1918.3
2014-Dec-19 18:33N 49°13' W 123°50'1 1.1
2014-Dec-19 17:33N 49°13' W 123°51'1818.1
2014-Dec-19 16:33N 49°06' W 123°26'1312.7
2014-Dec-19 15:32N 49°00' W 123°08'1313.2
2014-Dec-19 14:33N 49°04' W 123°27'1717.3
2014-Dec-19 13:33N 49°13' W 123°49'3 0.6
2014-Dec-19 08:31N 49°11' W 123°53'1818.5
2014-Dec-19 07:34N 49°07' W 123°27'1414.1
2014-Dec-19 06:33N 49°00' W 123°08'1414.0
2014-Dec-19 05:33N 49°05' W 123°28'1817.6
2014-Dec-19 04:33N 49°12' W 123°53'3 3.2
2014-Dec-19 03:33N 49°13' W 123°49'2020.2
2014-Dec-19 02:34N 49°03' W 123°22'10 9.5
2014-Dec-19 01:33N 49°00' W 123°08'1313.4
2014-Dec-19 00:33N 49°05' W 123°27'1817.2
2014-Dec-18 23:31N 49°12' W 123°52'1 0.8
2014-Dec-18 22:33N 49°13' W 123°51'1918.8
2014-Dec-18 21:34N 49°05' W 123°25'1211.9
2014-Dec-18 20:32N 49°00' W 123°08'1313.1
2014-Dec-18 19:34N 49°04' W 123°27'1717.3
2014-Dec-18 18:34N 49°13' W 123°50'0 0.3
2014-Dec-18 17:31N 49°13' W 123°50'1717.5
2014-Dec-18 16:33N 49°06' W 123°26'1312.1
2014-Dec-18 15:27N 49°00' W 123°08'1214.0
2014-Dec-18 14:34N 49°04' W 123°26'1717.5
2014-Dec-18 13:33N 49°13' W 123°49'4 0.8
2014-Dec-18 08:32N 49°10' W 123°53'1717.2
2014-Dec-18 07:33N 49°07' W 123°28'1514.9
2014-Dec-18 06:33N 49°00' W 123°08'1111.4
2014-Dec-18 05:34N 49°04' W 123°24'1919.0
2014-Dec-18 04:33N 49°13' W 123°50'1 1.2
2014-Dec-18 03:33N 49°12' W 123°52'1717.3
2014-Dec-18 02:33N 49°06' W 123°28'1414.2
2014-Dec-18 01:34N 49°00' W 123°08'1211.5
2014-Dec-18 00:34N 49°04' W 123°25'1817.9
2014-Dec-17 23:33N 49°13' W 123°48'3 2.7
2014-Dec-17 22:33N 49°12' W 123°52'1817.6
2014-Dec-17 21:33N 49°07' W 123°27'1413.9
2014-Dec-17 20:33N 49°00' W 123°08'1212.1
2014-Dec-17 19:34N 49°04' W 123°26'1818.0
2014-Dec-17 18:34N 49°13' W 123°49'1 1.2
2014-Dec-17 17:34N 49°13' W 123°51'1817.8
2014-Dec-17 16:33N 49°06' W 123°26'1313.0
2014-Dec-17 15:34N 49°00' W 123°08'1312.6
2014-Dec-17 14:33N 49°04' W 123°26'1817.7
2014-Dec-17 13:33N 49°13' W 123°49'4 0.8
2014-Dec-17 08:33N 49°10' W 123°53'1717.3
2014-Dec-17 07:33N 49°07' W 123°28'1414.5
2014-Dec-17 06:33N 49°00' W 123°08'1313.3
2014-Dec-17 05:34N 49°05' W 123°27'1818.1
2014-Dec-17 04:33N 49°12' W 123°52'1 1.3
2014-Dec-17 03:33N 49°13' W 123°51'1818.6
2014-Dec-17 02:33N 49°06' W 123°25'1212.2
2014-Dec-17 01:33N 49°00' W 123°08'1312.9
2014-Dec-17 00:33N 49°05' W 123°26'1817.9
2014-Dec-16 23:33N 49°13' W 123°51'2 1.9
2014-Dec-16 22:33N 49°12' W 123°53'1818.1
2014-Dec-16 21:33N 49°06' W 123°27'1413.7
2014-Dec-16 20:33N 49°00' W 123°08'1212.3
2014-Dec-16 19:33N 49°04' W 123°26'1818.4
2014-Dec-16 18:33N 49°13' W 123°50'2 2.0
2014-Dec-16 17:34N 49°12' W 123°53'1818.1
2014-Dec-16 16:34N 49°06' W 123°27'1413.7
2014-Dec-16 15:33N 49°00' W 123°08'1211.9
2014-Dec-16 14:33N 49°04' W 123°25'1918.7
2014-Dec-16 13:33N 49°13' W 123°50'4 0.7
2014-Dec-16 08:33N 49°10' W 123°53'1616.3
2014-Dec-16 07:33N 49°07' W 123°29'1515.4
2014-Dec-16 06:33N 49°00' W 123°08'1212.0
2014-Dec-16 05:33N 49°04' W 123°25'1818.1
2014-Dec-16 04:33N 49°13' W 123°50'3 2.5
2014-Dec-16 03:32N 49°12' W 123°53'1818.9
2014-Dec-16 02:33N 49°06' W 123°27'1413.5
2014-Dec-16 01:33N 49°00' W 123°08'1312.4
2014-Dec-16 00:31N 49°04' W 123°27'1718.1
2014-Dec-15 23:33N 49°13' W 123°50'2 2.5
2014-Dec-15 22:34N 49°12' W 123°53'1817.8
2014-Dec-15 21:33N 49°06' W 123°27'1414.1
2014-Dec-15 20:33N 49°00' W 123°08'1111.1
2014-Dec-15 19:34N 49°03' W 123°24'1918.8
2014-Dec-15 18:34N 49°13' W 123°49'3 3.1
2014-Dec-15 17:34N 49°12' W 123°53'1817.9
2014-Dec-15 16:34N 49°07' W 123°27'1414.0
2014-Dec-15 15:33N 49°00' W 123°08'1211.9
2014-Dec-15 14:33N 49°04' W 123°25'1918.5
2014-Dec-15 13:33N 49°13' W 123°50'3 0.6
2014-Dec-15 08:33N 49°10' W 123°53'1717.1
2014-Dec-15 07:33N 49°08' W 123°27'1514.9
2014-Dec-15 06:34N 49°00' W 123°08'1211.9
2014-Dec-15 05:33N 49°04' W 123°25'1818.2
2014-Dec-15 04:33N 49°13' W 123°49'1 1.0
2014-Dec-15 03:33N 49°13' W 123°51'1919.3
2014-Dec-15 02:33N 49°06' W 123°23'1211.7
2014-Dec-15 01:33N 49°00' W 123°08'1312.7
2014-Dec-15 00:33N 49°04' W 123°26'1818.0
2014-Dec-14 23:33N 49°13' W 123°51'2 2.0
2014-Dec-14 22:33N 49°12' W 123°53'1817.7
2014-Dec-14 21:33N 49°07' W 123°27'1414.2
2014-Dec-14 20:33N 49°00' W 123°08'1111.1
2014-Dec-14 19:34N 49°03' W 123°24'1918.8
2014-Dec-14 18:34N 49°13' W 123°49'4 0.3
2014-Dec-14 01:11N 49°10' W 123°53'1013.9
2014-Dec-14 00:29N 49°11' W 123°39'1819.4
2014-Dec-13 23:33N 49°01' W 123°16'3 3.1
2014-Dec-13 22:33N 49°00' W 123°11'1818.5
2014-Dec-13 21:33N 49°09' W 123°36'11 8.1
2014-Dec-13 20:09N 49°10' W 123°53'914.7
2014-Dec-13 19:33N 49°11' W 123°40'1918.9
2014-Dec-13 18:33N 49°01' W 123°15'3 2.6
2014-Dec-13 17:33N 49°00' W 123°12'1918.5
2014-Dec-13 16:33N 49°09' W 123°37'11 1.4
2014-Dec-13 08:33N 49°11' W 123°53'1717.0
2014-Dec-13 07:33N 49°07' W 123°28'1514.8
2014-Dec-13 06:33N 49°00' W 123°08'1211.6
2014-Dec-13 05:34N 49°03' W 123°25'1918.7
2014-Dec-13 04:33N 49°13' W 123°49'2 2.2
2014-Dec-13 03:33N 49°12' W 123°53'1818.2
2014-Dec-13 02:33N 49°06' W 123°26'1313.4
2014-Dec-13 01:33N 49°00' W 123°08'1212.1
2014-Dec-13 00:33N 49°04' W 123°26'1918.6
2014-Dec-12 23:33N 49°13' W 123°50'2 2.2
2014-Dec-12 22:34N 49°12' W 123°53'1817.7
2014-Dec-12 21:33N 49°07' W 123°27'1414.0
2014-Dec-12 20:33N 49°00' W 123°08'1111.2
2014-Dec-12 19:33N 49°04' W 123°24'1918.7
2014-Dec-12 18:33N 49°13' W 123°49'3 2.5
2014-Dec-12 17:34N 49°12' W 123°53'1817.9
2014-Dec-12 16:33N 49°07' W 123°27'1413.9
2014-Dec-12 15:33N 49°00' W 123°08'1211.5
2014-Dec-12 14:33N 49°04' W 123°25'1818.3
2014-Dec-12 13:33N 49°13' W 123°49'1 0.2
2014-Dec-12 08:33N 49°13' W 123°47'2020.1
2014-Dec-12 07:33N 49°03' W 123°21'9 8.6
2014-Dec-12 06:33N 49°00' W 123°08'1110.7
2014-Dec-12 05:33N 49°03' W 123°23'1919.2
2014-Dec-12 04:34N 49°13' W 123°49'2 2.2
2014-Dec-12 03:33N 49°12' W 123°52'2020.1
2014-Dec-12 02:33N 49°05' W 123°23'1111.0
2014-Dec-12 01:33N 49°00' W 123°08'1212.5
2014-Dec-12 00:33N 49°04' W 123°26'  

Dump ship's entire track history